sensor_id;sensor_type;location;lat;lon;timestamp;pressure;altitude;pressure_sealevel;temperature;humidity
34073;BME280;20346;52.702;16.886;2023-02-18T00:00:03;100190.28;;;6.94;82.77
34073;BME280;20346;52.702;16.886;2023-02-18T00:02:49;100188.06;;;6.94;82.96
34073;BME280;20346;52.702;16.886;2023-02-18T00:05:36;100204.69;;;6.93;82.40
34073;BME280;20346;52.702;16.886;2023-02-18T00:08:22;100197.84;;;6.92;82.88
34073;BME280;20346;52.702;16.886;2023-02-18T00:11:08;100197.84;;;6.92;82.84
34073;BME280;20346;52.702;16.886;2023-02-18T00:13:56;100198.52;;;6.91;82.92
34073;BME280;20346;52.702;16.886;2023-02-18T00:16:43;100183.30;;;6.88;82.64
34073;BME280;20346;52.702;16.886;2023-02-18T00:19:29;100188.45;;;6.87;82.64
34073;BME280;20346;52.702;16.886;2023-02-18T00:22:15;100183.49;;;6.86;82.61
34073;BME280;20346;52.702;16.886;2023-02-18T00:25:01;100191.38;;;6.85;82.48
34073;BME280;20346;52.702;16.886;2023-02-18T00:27:47;100200.80;;;6.85;82.68
34073;BME280;20346;52.702;16.886;2023-02-18T00:30:34;100203.02;;;6.85;82.42
34073;BME280;20346;52.702;16.886;2023-02-18T00:33:20;100208.70;;;6.84;82.57
34073;BME280;20346;52.702;16.886;2023-02-18T00:36:08;100212.29;;;6.83;82.42
34073;BME280;20346;52.702;16.886;2023-02-18T00:38:56;100212.98;;;6.83;82.45
34073;BME280;20346;52.702;16.886;2023-02-18T00:41:42;100217.45;;;6.83;82.33
34073;BME280;20346;52.702;16.886;2023-02-18T00:44:28;100227.89;;;6.83;82.30
34073;BME280;20346;52.702;16.886;2023-02-18T00:47:14;100226.52;;;6.82;82.30
34073;BME280;20346;52.702;16.886;2023-02-18T00:50:00;100224.14;;;6.80;82.26
34073;BME280;20346;52.702;16.886;2023-02-18T00:52:47;100235.79;;;6.79;82.21
34073;BME280;20346;52.702;16.886;2023-02-18T00:55:37;100237.17;;;6.78;82.14
34073;BME280;20346;52.702;16.886;2023-02-18T00:58:23;100241.45;;;6.77;82.02
34073;BME280;20346;52.702;16.886;2023-02-18T01:01:10;100237.71;;;6.77;81.96
34073;BME280;20346;52.702;16.886;2023-02-18T01:03:56;100237.40;;;6.75;81.92
34073;BME280;20346;52.702;16.886;2023-02-18T01:06:42;100237.23;;;6.73;81.89
34073;BME280;20346;52.702;16.886;2023-02-18T01:09:28;100230.91;;;6.71;81.78
34073;BME280;20346;52.702;16.886;2023-02-18T01:12:15;100234.52;;;6.68;81.55
34073;BME280;20346;52.702;16.886;2023-02-18T01:15:02;100234.20;;;6.65;81.56
34073;BME280;20346;52.702;16.886;2023-02-18T01:17:48;100237.13;;;6.62;80.82
34073;BME280;20346;52.702;16.886;2023-02-18T01:20:37;100242.95;;;6.61;81.39
34073;BME280;20346;52.702;16.886;2023-02-18T01:23:23;100248.27;;;6.61;81.54
34073;BME280;20346;52.702;16.886;2023-02-18T01:26:10;100244.85;;;6.60;81.22
34073;BME280;20346;52.702;16.886;2023-02-18T01:28:56;100246.40;;;6.58;81.42
34073;BME280;20346;52.702;16.886;2023-02-18T01:31:42;100250.69;;;6.56;81.20
34073;BME280;20346;52.702;16.886;2023-02-18T01:34:28;100238.02;;;6.54;81.12
34073;BME280;20346;52.702;16.886;2023-02-18T01:37:14;100259.27;;;6.52;81.22
34073;BME280;20346;52.702;16.886;2023-02-18T01:40:01;100249.86;;;6.50;80.99
34073;BME280;20346;52.702;16.886;2023-02-18T01:42:47;100249.02;;;6.48;81.00
34073;BME280;20346;52.702;16.886;2023-02-18T01:51:27;100250.43;;;6.40;80.95
34073;BME280;20346;52.702;16.886;2023-02-18T01:54:17;100244.28;;;6.36;80.70
34073;BME280;20346;52.702;16.886;2023-02-18T01:57:09;100246.02;;;6.34;80.77
34073;BME280;20346;52.702;16.886;2023-02-18T02:00:05;100247.22;;;6.31;80.81
34073;BME280;20346;52.702;16.886;2023-02-18T02:02:53;100248.44;;;6.27;80.66
34073;BME280;20346;52.702;16.886;2023-02-18T02:05:39;100243.67;;;6.24;80.73
34073;BME280;20346;52.702;16.886;2023-02-18T02:08:25;100241.30;;;6.20;80.54
34073;BME280;20346;52.702;16.886;2023-02-18T02:14:15;100242.52;;;6.16;80.50
34073;BME280;20346;52.702;16.886;2023-02-18T02:20:16;100243.20;;;6.15;80.36
34073;BME280;20346;52.702;16.886;2023-02-18T02:23:25;100248.68;;;6.15;80.29
34073;BME280;20346;52.702;16.886;2023-02-18T02:38:27;100260.92;;;6.28;79.83
34073;BME280;20346;52.702;16.886;2023-02-18T02:46:51;100265.70;;;6.32;79.89
34073;BME280;20346;52.702;16.886;2023-02-18T02:49:43;100272.21;;;6.32;79.88
34073;BME280;20346;52.702;16.886;2023-02-18T02:52:33;100263.98;;;6.32;79.79
34073;BME280;20346;52.702;16.886;2023-02-18T02:55:23;100268.61;;;6.32;79.60
34073;BME280;20346;52.702;16.886;2023-02-18T02:58:11;100266.73;;;6.32;79.73
34073;BME280;20346;52.702;16.886;2023-02-18T03:13:45;100282.03;;;6.23;79.75
34073;BME280;20346;52.702;16.886;2023-02-18T03:22:12;100279.48;;;6.20;79.57
34073;BME280;20346;52.702;16.886;2023-02-18T03:25:01;100275.03;;;6.18;79.47
34073;BME280;20346;52.702;16.886;2023-02-18T03:27:58;100279.15;;;6.15;79.46
34073;BME280;20346;52.702;16.886;2023-02-18T03:30:47;100273.52;;;6.12;79.45
34073;BME280;20346;52.702;16.886;2023-02-18T03:33:36;100274.89;;;6.08;79.52
34073;BME280;20346;52.702;16.886;2023-02-18T03:36:22;100273.20;;;6.04;79.43
34073;BME280;20346;52.702;16.886;2023-02-18T03:39:10;100278.16;;;6.02;79.26
34073;BME280;20346;52.702;16.886;2023-02-18T03:41:59;100273.38;;;5.98;79.42
34073;BME280;20346;52.702;16.886;2023-02-18T03:44:45;100281.42;;;5.93;79.12
34073;BME280;20346;52.702;16.886;2023-02-18T03:47:31;100286.73;;;5.89;79.25
34073;BME280;20346;52.702;16.886;2023-02-18T03:50:17;100293.05;;;5.87;79.03
34073;BME280;20346;52.702;16.886;2023-02-18T03:53:03;100297.33;;;5.86;79.34
34073;BME280;20346;52.702;16.886;2023-02-18T03:55:49;100289.11;;;5.85;79.09
34073;BME280;20346;52.702;16.886;2023-02-18T03:58:36;100291.85;;;5.84;79.02
34073;BME280;20346;52.702;16.886;2023-02-18T04:01:22;100287.06;;;5.80;79.16
34073;BME280;20346;52.702;16.886;2023-02-18T04:04:08;100299.90;;;5.78;79.04
34073;BME280;20346;52.702;16.886;2023-02-18T04:06:54;100310.34;;;5.76;79.20
34073;BME280;20346;52.702;16.886;2023-02-18T04:09:40;100318.38;;;5.75;79.05
34073;BME280;20346;52.702;16.886;2023-02-18T04:12:27;100317.86;;;5.74;79.13
34073;BME280;20346;52.702;16.886;2023-02-18T04:15:13;100328.46;;;5.74;79.15
34073;BME280;20346;52.702;16.886;2023-02-18T04:17:59;100330.70;;;5.74;79.12
34073;BME280;20346;52.702;16.886;2023-02-18T04:20:45;100327.95;;;5.73;79.00
34073;BME280;20346;52.702;16.886;2023-02-18T04:23:31;100330.35;;;5.74;78.91
34073;BME280;20346;52.702;16.886;2023-02-18T04:26:17;100327.27;;;5.73;79.02
34073;BME280;20346;52.702;16.886;2023-02-18T04:29:03;100320.60;;;5.73;78.92
34073;BME280;20346;52.702;16.886;2023-02-18T04:31:50;100320.77;;;5.74;78.91
34073;BME280;20346;52.702;16.886;2023-02-18T04:34:36;100331.55;;;5.74;78.80
34073;BME280;20346;52.702;16.886;2023-02-18T04:37:22;100336.85;;;5.74;78.88
34073;BME280;20346;52.702;16.886;2023-02-18T04:40:08;100339.41;;;5.74;78.81
34073;BME280;20346;52.702;16.886;2023-02-18T04:42:54;100339.92;;;5.75;78.90
34073;BME280;20346;52.702;16.886;2023-02-18T04:45:40;100333.24;;;5.75;78.94
34073;BME280;20346;52.702;16.886;2023-02-18T04:48:27;100334.80;;;5.76;78.71
34073;BME280;20346;52.702;16.886;2023-02-18T04:51:13;100343.69;;;5.77;78.68
34073;BME280;20346;52.702;16.886;2023-02-18T04:53:59;100346.59;;;5.78;78.72
34073;BME280;20346;52.702;16.886;2023-02-18T04:56:45;100342.65;;;5.79;78.77
34073;BME280;20346;52.702;16.886;2023-02-18T04:59:31;100348.64;;;5.81;78.72
34073;BME280;20346;52.702;16.886;2023-02-18T05:02:17;100348.98;;;5.82;78.70
34073;BME280;20346;52.702;16.886;2023-02-18T05:05:03;100349.50;;;5.84;78.46
34073;BME280;20346;52.702;16.886;2023-02-18T05:07:49;100357.88;;;5.86;78.62
34073;BME280;20346;52.702;16.886;2023-02-18T05:10:36;100352.23;;;5.87;78.62
34073;BME280;20346;52.702;16.886;2023-02-18T05:13:22;100350.52;;;5.87;78.53
34073;BME280;20346;52.702;16.886;2023-02-18T05:16:08;100358.21;;;5.87;78.14
34073;BME280;20346;52.702;16.886;2023-02-18T05:18:54;100364.38;;;5.86;78.34
34073;BME280;20346;52.702;16.886;2023-02-18T05:21:41;100362.33;;;5.83;78.36
34073;BME280;20346;52.702;16.886;2023-02-18T05:24:27;100357.02;;;5.80;78.31
34073;BME280;20346;52.702;16.886;2023-02-18T05:27:14;100352.41;;;5.76;78.22
34073;BME280;20346;52.702;16.886;2023-02-18T05:30:00;100355.34;;;5.72;77.99
34073;BME280;20346;52.702;16.886;2023-02-18T05:32:46;100369.20;;;5.69;78.17
34073;BME280;20346;52.702;16.886;2023-02-18T05:35:32;100372.96;;;5.67;78.14
34073;BME280;20346;52.702;16.886;2023-02-18T05:38:18;100376.05;;;5.64;78.24
34073;BME280;20346;52.702;16.886;2023-02-18T05:41:04;100384.42;;;5.65;78.15
34073;BME280;20346;52.702;16.886;2023-02-18T05:43:50;100384.59;;;5.65;78.13
34073;BME280;20346;52.702;16.886;2023-02-18T05:46:59;100376.04;;;5.64;78.06
34073;BME280;20346;52.702;16.886;2023-02-18T05:49:45;100390.92;;;5.65;77.92
34073;BME280;20346;52.702;16.886;2023-02-18T05:52:31;100384.59;;;5.65;78.02
34073;BME280;20346;52.702;16.886;2023-02-18T05:55:18;100384.59;;;5.64;78.08
34073;BME280;20346;52.702;16.886;2023-02-18T05:58:04;100385.27;;;5.64;78.00
34073;BME280;20346;52.702;16.886;2023-02-18T06:00:50;100379.80;;;5.63;77.98
34073;BME280;20346;52.702;16.886;2023-02-18T06:03:37;100385.44;;;5.61;77.83
34073;BME280;20346;52.702;16.886;2023-02-18T06:06:23;100389.03;;;5.59;77.76
34073;BME280;20346;52.702;16.886;2023-02-18T06:09:09;100397.92;;;5.57;78.00
34073;BME280;20346;52.702;16.886;2023-02-18T06:11:55;100409.38;;;5.54;77.97
34073;BME280;20346;52.702;16.886;2023-02-18T06:14:41;100411.94;;;5.53;77.89
34073;BME280;20346;52.702;16.886;2023-02-18T06:17:27;100417.59;;;5.52;77.99
34073;BME280;20346;52.702;16.886;2023-02-18T06:20:13;100415.36;;;5.52;77.90
34073;BME280;20346;52.702;16.886;2023-02-18T06:23:00;100419.80;;;5.51;77.90
34073;BME280;20346;52.702;16.886;2023-02-18T06:25:47;100424.59;;;5.52;77.90
34073;BME280;20346;52.702;16.886;2023-02-18T06:28:33;100435.52;;;5.53;77.90
34073;BME280;20346;52.702;16.886;2023-02-18T06:31:19;100434.51;;;5.54;77.89
34073;BME280;20346;52.702;16.886;2023-02-18T06:34:05;100438.79;;;5.56;77.85
34073;BME280;20346;52.702;16.886;2023-02-18T06:36:51;100439.65;;;5.59;77.87
34073;BME280;20346;52.702;16.886;2023-02-18T06:39:38;100437.43;;;5.62;77.93
34073;BME280;20346;52.702;16.886;2023-02-18T06:42:24;100449.92;;;5.65;77.71
34073;BME280;20346;52.702;16.886;2023-02-18T06:45:10;100452.31;;;5.68;77.71
34073;BME280;20346;52.702;16.886;2023-02-18T06:47:57;100459.49;;;5.71;77.87
34073;BME280;20346;52.702;16.886;2023-02-18T06:50:43;100469.05;;;5.75;77.73
34073;BME280;20346;52.702;16.886;2023-02-18T06:53:29;100462.21;;;5.78;77.68
34073;BME280;20346;52.702;16.886;2023-02-18T06:56:15;100467.86;;;5.80;77.73
34073;BME280;20346;52.702;16.886;2023-02-18T06:59:01;100466.49;;;5.82;77.75
34073;BME280;20346;52.702;16.886;2023-02-18T07:01:47;100459.99;;;5.82;77.67
34073;BME280;20346;52.702;16.886;2023-02-18T07:04:33;100460.52;;;5.83;77.66
34073;BME280;20346;52.702;16.886;2023-02-18T07:07:20;100463.42;;;5.84;77.56
34073;BME280;20346;52.702;16.886;2023-02-18T07:10:06;100463.59;;;5.85;77.68
34073;BME280;20346;52.702;16.886;2023-02-18T07:12:52;100476.42;;;5.86;77.54
34073;BME280;20346;52.702;16.886;2023-02-18T07:15:38;100468.04;;;5.87;77.63
34073;BME280;20346;52.702;16.886;2023-02-18T07:18:24;100469.78;;;5.89;77.73
34073;BME280;20346;52.702;16.886;2023-02-18T07:21:11;100470.98;;;5.92;77.62
34073;BME280;20346;52.702;16.886;2023-02-18T07:23:57;100470.82;;;5.93;77.62
34073;BME280;20346;52.702;16.886;2023-02-18T07:26:43;100467.91;;;5.95;77.60
34073;BME280;20346;52.702;16.886;2023-02-18T07:29:29;100461.75;;;5.97;77.52
34073;BME280;20346;52.702;16.886;2023-02-18T07:32:16;100459.19;;;6.01;77.59
34073;BME280;20346;52.702;16.886;2023-02-18T07:35:03;100456.62;;;6.03;77.53
34073;BME280;20346;52.702;16.886;2023-02-18T07:37:49;100456.62;;;6.06;77.53
34073;BME280;20346;52.702;16.886;2023-02-18T07:40:35;100459.70;;;6.11;77.47
34073;BME280;20346;52.702;16.886;2023-02-18T07:43:21;100465.00;;;6.18;77.37
34073;BME280;20346;52.702;16.886;2023-02-18T07:46:08;100470.62;;;6.27;77.49
34073;BME280;20346;52.702;16.886;2023-02-18T07:48:55;100469.40;;;6.42;77.56
34073;BME280;20346;52.702;16.886;2023-02-18T07:51:41;100472.80;;;6.55;77.48
34073;BME280;20346;52.702;16.886;2023-02-18T07:54:27;100475.16;;;6.72;77.25
34073;BME280;20346;52.702;16.886;2023-02-18T07:57:13;100470.29;;;6.89;77.36
34073;BME280;20346;52.702;16.886;2023-02-18T08:00:00;100475.04;;;7.04;77.39
34073;BME280;20346;52.702;16.886;2023-02-18T08:02:46;100473.98;;;7.13;77.30
34073;BME280;20346;52.702;16.886;2023-02-18T08:05:32;100470.70;;;7.18;77.24
34073;BME280;20346;52.702;16.886;2023-02-18T08:08:19;100465.89;;;7.21;77.29
34073;BME280;20346;52.702;16.886;2023-02-18T08:11:06;100470.65;;;7.26;77.19
34073;BME280;20346;52.702;16.886;2023-02-18T08:13:52;100464.43;;;7.32;77.13
34073;BME280;20346;52.702;16.886;2023-02-18T08:16:39;100459.94;;;7.37;76.99
34073;BME280;20346;52.702;16.886;2023-02-18T08:19:25;100462.17;;;7.37;77.03
34073;BME280;20346;52.702;16.886;2023-02-18T08:22:11;100462.19;;;7.37;77.23
34073;BME280;20346;52.702;16.886;2023-02-18T08:24:58;100461.12;;;7.43;77.20
34073;BME280;20346;52.702;16.886;2023-02-18T08:27:44;100465.71;;;7.48;77.22
34073;BME280;20346;52.702;16.886;2023-02-18T08:30:30;100464.64;;;7.56;77.08
34073;BME280;20346;52.702;16.886;2023-02-18T08:33:17;100472.34;;;7.60;76.89
34073;BME280;20346;52.702;16.886;2023-02-18T08:36:05;100462.34;;;7.68;76.82
34073;BME280;20346;52.702;16.886;2023-02-18T08:38:52;100467.64;;;7.71;76.70
34073;BME280;20346;52.702;16.886;2023-02-18T08:41:38;100456.98;;;7.73;76.81
34073;BME280;20346;52.702;16.886;2023-02-18T08:44:24;100464.45;;;7.81;77.00
34073;BME280;20346;52.702;16.886;2023-02-18T08:47:11;100458.76;;;7.84;76.83
34073;BME280;20346;52.702;16.886;2023-02-18T08:49:58;100459.64;;;7.83;76.61
34073;BME280;20346;52.702;16.886;2023-02-18T08:52:44;100459.70;;;7.79;76.65
34073;BME280;20346;52.702;16.886;2023-02-18T08:55:31;100463.30;;;7.78;76.67
34073;BME280;20346;52.702;16.886;2023-02-18T08:58:17;100458.68;;;7.75;76.66
34073;BME280;20346;52.702;16.886;2023-02-18T09:01:05;100452.36;;;7.72;76.67
34073;BME280;20346;52.702;16.886;2023-02-18T09:03:52;100458.22;;;7.68;76.88
34073;BME280;20346;52.702;16.886;2023-02-18T09:06:38;100459.45;;;7.64;76.69
34073;BME280;20346;52.702;16.886;2023-02-18T09:09:24;100459.48;;;7.57;76.45
34073;BME280;20346;52.702;16.886;2023-02-18T09:12:10;100457.98;;;7.51;76.57
34073;BME280;20346;52.702;16.886;2023-02-18T09:14:57;100463.10;;;7.55;76.50
34073;BME280;20346;52.702;16.886;2023-02-18T09:17:43;100466.69;;;7.57;76.26
34073;BME280;20346;52.702;16.886;2023-02-18T09:20:29;100462.08;;;7.56;76.31
34073;BME280;20346;52.702;16.886;2023-02-18T09:23:15;100463.45;;;7.56;76.60
34073;BME280;20346;52.702;16.886;2023-02-18T09:26:08;100453.98;;;7.59;76.52
34073;BME280;20346;52.702;16.886;2023-02-18T09:28:55;100440.72;;;7.68;76.44
34073;BME280;20346;52.702;16.886;2023-02-18T09:31:41;100438.79;;;7.75;76.46
34073;BME280;20346;52.702;16.886;2023-02-18T09:34:27;100430.11;;;7.83;76.34
34073;BME280;20346;52.702;16.886;2023-02-18T09:37:14;100428.88;;;7.87;76.33
34073;BME280;20346;52.702;16.886;2023-02-18T09:40:00;100429.74;;;7.86;75.94
34073;BME280;20346;52.702;16.886;2023-02-18T09:42:46;100430.41;;;7.88;76.28
34073;BME280;20346;52.702;16.886;2023-02-18T09:45:32;100431.73;;;7.95;76.39
34073;BME280;20346;52.702;16.886;2023-02-18T09:48:19;100437.70;;;8.00;76.19
34073;BME280;20346;52.702;16.886;2023-02-18T09:51:12;100432.48;;;8.10;76.04
34073;BME280;20346;52.702;16.886;2023-02-18T09:53:58;100423.82;;;8.17;75.95
34073;BME280;20346;52.702;16.886;2023-02-18T09:56:45;100425.46;;;8.25;76.09
34073;BME280;20346;52.702;16.886;2023-02-18T09:59:31;100425.56;;;8.32;75.92
34073;BME280;20346;52.702;16.886;2023-02-18T10:02:17;100430.63;;;8.42;76.02
34073;BME280;20346;52.702;16.886;2023-02-18T10:05:05;100428.92;;;8.57;75.97
34073;BME280;20346;52.702;16.886;2023-02-18T10:07:53;100425.84;;;8.72;76.00
34073;BME280;20346;52.702;16.886;2023-02-18T10:10:43;100421.40;;;8.83;75.83
34073;BME280;20346;52.702;16.886;2023-02-18T10:13:32;100404.52;;;8.85;75.57
34073;BME280;20346;52.702;16.886;2023-02-18T10:16:18;100402.50;;;8.83;75.53
34073;BME280;20346;52.702;16.886;2023-02-18T10:19:27;100393.70;;;8.84;75.59
34073;BME280;20346;52.702;16.886;2023-02-18T10:22:15;100382.47;;;8.88;75.57
34073;BME280;20346;52.702;16.886;2023-02-18T10:25:02;100379.29;;;8.96;75.64
34073;BME280;20346;52.702;16.886;2023-02-18T10:27:50;100377.08;;;9.06;75.37
34073;BME280;20346;52.702;16.886;2023-02-18T10:30:45;100371.46;;;9.14;75.41
34073;BME280;20346;52.702;16.886;2023-02-18T10:33:34;100367.92;;;9.22;75.40
34073;BME280;20346;52.702;16.886;2023-02-18T10:36:22;100363.50;;;9.30;75.33
34073;BME280;20346;52.702;16.886;2023-02-18T10:45:19;100352.59;;;9.35;75.06
34073;BME280;20346;52.702;16.886;2023-02-18T10:48:10;100345.05;;;9.33;75.20
34073;BME280;20346;52.702;16.886;2023-02-18T10:51:00;100348.20;;;9.30;74.90
34073;BME280;20346;52.702;16.886;2023-02-18T10:53:50;100346.86;;;9.27;74.94
34073;BME280;20346;52.702;16.886;2023-02-18T10:56:39;100350.48;;;9.27;75.01
34073;BME280;20346;52.702;16.886;2023-02-18T10:59:30;100348.02;;;9.30;74.58
34073;BME280;20346;52.702;16.886;2023-02-18T11:02:18;100339.70;;;9.34;74.88
34073;BME280;20346;52.702;16.886;2023-02-18T11:05:11;100339.61;;;9.38;74.84
34073;BME280;20346;52.702;16.886;2023-02-18T11:08:01;100330.42;;;9.43;74.74
34073;BME280;20346;52.702;16.886;2023-02-18T11:10:52;100318.99;;;9.47;74.53
34073;BME280;20346;52.702;16.886;2023-02-18T11:13:38;100317.72;;;9.51;74.63
34073;BME280;20346;52.702;16.886;2023-02-18T11:16:37;100309.52;;;9.58;74.88
34073;BME280;20346;52.702;16.886;2023-02-18T11:19:30;100300.56;;;9.69;74.74
34073;BME280;20346;52.702;16.886;2023-02-18T11:22:18;100292.36;;;9.75;74.48
34073;BME280;20346;52.702;16.886;2023-02-18T11:25:17;100288.76;;;9.75;73.91
34073;BME280;20346;52.702;16.886;2023-02-18T11:28:46;100281.56;;;9.73;74.30
34073;BME280;20346;52.702;16.886;2023-02-18T11:31:17;100274.70;;;9.71;74.43
34073;BME280;20346;52.702;16.886;2023-02-18T11:34:04;100271.25;;;9.62;74.10
34073;BME280;20346;52.702;16.886;2023-02-18T11:36:51;100261.64;;;9.51;73.86
34073;BME280;20346;52.702;16.886;2023-02-18T11:39:41;100244.30;;;9.39;73.83
34073;BME280;20346;52.702;16.886;2023-02-18T11:42:28;100235.77;;;9.36;74.15
34073;BME280;20346;52.702;16.886;2023-02-18T11:45:30;100229.94;;;9.43;74.22
34073;BME280;20346;52.702;16.886;2023-02-18T11:48:22;100225.05;;;9.57;74.09
34073;BME280;20346;52.702;16.886;2023-02-18T11:54:04;100205.53;;;9.79;74.05
34073;BME280;20346;52.702;16.886;2023-02-18T11:56:56;100204.08;;;9.90;73.91
34073;BME280;20346;52.702;16.886;2023-02-18T11:59:42;100200.34;;;9.97;73.49
34073;BME280;20346;52.702;16.886;2023-02-18T12:02:30;100190.04;;;9.95;73.55
34073;BME280;20346;52.702;16.886;2023-02-18T12:05:22;100191.59;;;9.95;73.49
34073;BME280;20346;52.702;16.886;2023-02-18T12:08:12;100185.79;;;9.93;73.39
34073;BME280;20346;52.702;16.886;2023-02-18T12:11:09;100178.92;;;9.84;73.20
34073;BME280;20346;52.702;16.886;2023-02-18T12:13:58;100171.41;;;9.72;73.41
34073;BME280;20346;52.702;16.886;2023-02-18T12:16:50;100166.24;;;9.63;73.43
34073;BME280;20346;52.702;16.886;2023-02-18T12:25:59;100189.98;;;9.37;73.31
34073;BME280;20346;52.702;16.886;2023-02-18T12:28:52;100189.44;;;9.29;73.22
34073;BME280;20346;52.702;16.886;2023-02-18T12:34:56;100183.17;;;9.14;73.06
34073;BME280;20346;52.702;16.886;2023-02-18T12:46:36;100176.27;;;8.63;73.01
34073;BME280;20346;52.702;16.886;2023-02-18T12:52:56;100161.02;;;8.37;73.36
34073;BME280;20346;52.702;16.886;2023-02-18T12:59:04;100159.69;;;8.22;73.37
34073;BME280;20346;52.702;16.886;2023-02-18T13:10:46;100164.36;;;7.92;73.60
34073;BME280;20346;52.702;16.886;2023-02-18T13:13:41;100160.17;;;7.84;73.68
34073;BME280;20346;52.702;16.886;2023-02-18T13:16:30;100157.42;;;7.72;73.74
34073;BME280;20346;52.702;16.886;2023-02-18T13:22:04;100160.93;;;7.50;73.82
34073;BME280;20346;52.702;16.886;2023-02-18T13:24:50;100158.95;;;7.42;74.02
34073;BME280;20346;52.702;16.886;2023-02-18T13:27:52;100156.77;;;7.37;74.09
34073;BME280;20346;52.702;16.886;2023-02-18T13:30:44;100155.45;;;7.32;74.12
34073;BME280;20346;52.702;16.886;2023-02-18T13:34:16;100159.77;;;7.28;74.18
34073;BME280;20346;52.702;16.886;2023-02-18T13:36:51;100156.21;;;7.27;74.26
34073;BME280;20346;52.702;16.886;2023-02-18T13:39:44;100156.44;;;7.23;74.22
34073;BME280;20346;52.702;16.886;2023-02-18T13:42:34;100151.51;;;7.19;74.28
34073;BME280;20346;52.702;16.886;2023-02-18T13:45:28;100143.84;;;7.15;74.23
34073;BME280;20346;52.702;16.886;2023-02-18T13:48:27;100144.74;;;7.08;74.19
34073;BME280;20346;52.702;16.886;2023-02-18T13:51:26;100151.14;;;7.02;74.18
34073;BME280;20346;52.702;16.886;2023-02-18T13:57:20;100158.25;;;6.92;74.20
34073;BME280;20346;52.702;16.886;2023-02-18T14:00:12;100153.86;;;6.84;74.11
34073;BME280;20346;52.702;16.886;2023-02-18T14:03:18;100151.41;;;6.74;74.08
34073;BME280;20346;52.702;16.886;2023-02-18T14:06:18;100153.70;;;6.65;74.13
34073;BME280;20346;52.702;16.886;2023-02-18T14:21:21;100140.83;;;6.45;74.41
34073;BME280;20346;52.702;16.886;2023-02-18T14:24:41;100145.26;;;6.49;74.45
34073;BME280;20346;52.702;16.886;2023-02-18T14:27:26;100143.34;;;6.54;74.48
34073;BME280;20346;52.702;16.886;2023-02-18T14:33:11;100130.98;;;6.57;74.49
34073;BME280;20346;52.702;16.886;2023-02-18T14:36:05;100125.02;;;6.54;74.37
34073;BME280;20346;52.702;16.886;2023-02-18T14:45:08;100118.55;;;6.48;74.30
34073;BME280;20346;52.702;16.886;2023-02-18T14:50:48;100115.86;;;6.41;74.35
34073;BME280;20346;52.702;16.886;2023-02-18T14:53:39;100114.67;;;6.38;74.48
34073;BME280;20346;52.702;16.886;2023-02-18T14:56:25;100113.83;;;6.37;74.56
34073;BME280;20346;52.702;16.886;2023-02-18T14:59:12;100110.42;;;6.35;74.57
34073;BME280;20346;52.702;16.886;2023-02-18T15:01:59;100107.86;;;6.34;74.60
34073;BME280;20346;52.702;16.886;2023-02-18T15:04:45;100108.73;;;6.32;74.63
34073;BME280;20346;52.702;16.886;2023-02-18T15:07:32;100108.58;;;6.30;74.66
34073;BME280;20346;52.702;16.886;2023-02-18T15:10:17;100105.66;;;6.29;74.66
34073;BME280;20346;52.702;16.886;2023-02-18T15:13:04;100104.14;;;6.28;74.65
34073;BME280;20346;52.702;16.886;2023-02-18T15:16:03;100102.77;;;6.28;74.70
34073;BME280;20346;52.702;16.886;2023-02-18T15:18:52;100093.55;;;6.25;74.70
34073;BME280;20346;52.702;16.886;2023-02-18T15:21:39;100096.31;;;6.23;74.77
34073;BME280;20346;52.702;16.886;2023-02-18T15:24:36;100092.40;;;6.22;74.76
34073;BME280;20346;52.702;16.886;2023-02-18T15:32:58;100078.23;;;6.16;74.75
34073;BME280;20346;52.702;16.886;2023-02-18T15:35:44;100075.67;;;6.13;74.80
34073;BME280;20346;52.702;16.886;2023-02-18T15:38:30;100077.92;;;6.11;74.87
34073;BME280;20346;52.702;16.886;2023-02-18T15:41:17;100078.62;;;6.09;74.88
34073;BME280;20346;52.702;16.886;2023-02-18T15:44:04;100083.08;;;6.08;74.93
34073;BME280;20346;52.702;16.886;2023-02-18T15:46:52;100083.77;;;6.06;74.94
34073;BME280;20346;52.702;16.886;2023-02-18T15:49:39;100084.30;;;6.05;74.97
34073;BME280;20346;52.702;16.886;2023-02-18T15:52:29;100094.90;;;6.05;74.97
34073;BME280;20346;52.702;16.886;2023-02-18T15:55:58;100093.70;;;6.05;74.95
34073;BME280;20346;52.702;16.886;2023-02-18T15:58:26;100086.35;;;6.05;75.05
34073;BME280;20346;52.702;16.886;2023-02-18T16:01:26;100089.42;;;6.04;75.04
34073;BME280;20346;52.702;16.886;2023-02-18T16:04:12;100087.22;;;6.03;74.99
34073;BME280;20346;52.702;16.886;2023-02-18T16:07:00;100082.44;;;5.99;75.06
34073;BME280;20346;52.702;16.886;2023-02-18T16:09:47;100076.31;;;5.94;75.01
34073;BME280;20346;52.702;16.886;2023-02-18T16:12:33;100077.86;;;5.93;75.04
34073;BME280;20346;52.702;16.886;2023-02-18T16:15:24;100074.61;;;5.89;74.91
34073;BME280;20346;52.702;16.886;2023-02-18T16:18:21;100081.13;;;5.84;74.99
34073;BME280;20346;52.702;16.886;2023-02-18T16:24:20;100085.94;;;5.79;75.05
34073;BME280;20346;52.702;16.886;2023-02-18T16:27:11;100090.08;;;5.73;75.06
34073;BME280;20346;52.702;16.886;2023-02-18T16:30:01;100090.61;;;5.72;75.12
34073;BME280;20346;52.702;16.886;2023-02-18T16:32:48;100083.09;;;5.71;75.20
34073;BME280;20346;52.702;16.886;2023-02-18T16:35:34;100080.20;;;5.70;75.11
34073;BME280;20346;52.702;16.886;2023-02-18T16:38:21;100087.39;;;5.68;75.07
34073;BME280;20346;52.702;16.886;2023-02-18T16:41:09;100096.81;;;5.65;75.16
34073;BME280;20346;52.702;16.886;2023-02-18T16:43:56;100097.84;;;5.62;75.26
34073;BME280;20346;52.702;16.886;2023-02-18T16:46:42;100107.08;;;5.62;75.26
34073;BME280;20346;52.702;16.886;2023-02-18T16:49:28;100121.27;;;5.63;75.28